createdAt,value
2022-12-11T00:01:40.226Z,48.50
2022-12-11T00:04:10.656Z,46.97
2022-12-11T00:06:41.262Z,42.85
2022-12-11T00:09:12.533Z,44.40
2022-12-11T00:11:42.988Z,45.83
2022-12-11T00:14:13.466Z,48.05
2022-12-11T00:16:45.383Z,45.70
2022-12-11T00:19:15.742Z,46.30
2022-12-11T00:21:46.374Z,48.92
2022-12-11T00:24:16.962Z,51.25
2022-12-11T00:26:47.517Z,55.00
2022-12-11T00:29:18.036Z,60.10
2022-12-11T00:31:48.644Z,59.85
2022-12-11T00:34:18.737Z,59.03
2022-12-11T00:36:48.688Z,58.67
2022-12-11T00:39:18.981Z,61.20
2022-12-11T00:41:48.928Z,61.83
2022-12-11T00:44:18.887Z,63.33
2022-12-11T00:46:48.825Z,59.55
2022-12-11T00:49:19.871Z,62.70
2022-12-11T00:51:49.664Z,62.65
2022-12-11T00:54:20.221Z,61.27
2022-12-11T00:56:50.562Z,60.92
2022-12-11T00:59:20.500Z,69.05
2022-12-11T01:01:50.541Z,77.97
2022-12-11T01:04:20.607Z,72.60
2022-12-11T01:06:50.436Z,75.03
2022-12-11T01:09:35.217Z,70.90
2022-12-11T01:12:05.088Z,70.78
2022-12-11T01:14:35.022Z,71.03
2022-12-11T01:17:05.031Z,63.35
2022-12-11T01:19:35.051Z,64.38
2022-12-11T01:22:05.054Z,67.88
2022-12-11T01:24:35.457Z,63.53
2022-12-11T01:27:05.303Z,65.05
2022-12-11T01:29:35.613Z,69.73
2022-12-11T01:32:05.681Z,70.90
2022-12-11T01:34:36.206Z,67.75
2022-12-11T01:37:06.089Z,67.53
2022-12-11T01:39:36.662Z,67.75
2022-12-11T01:42:08.496Z,66.72
2022-12-11T01:45:08.215Z,63.20
2022-12-11T01:47:38.346Z,63.60
2022-12-11T01:50:09.625Z,64.47
2022-12-11T01:52:39.758Z,62.95
2022-12-11T01:55:11.329Z,65.07
2022-12-11T01:57:45.442Z,73.88
2022-12-11T02:00:15.816Z,76.22
2022-12-11T02:02:46.214Z,76.20
2022-12-11T02:05:16.515Z,84.50
2022-12-11T02:07:54.584Z,83.75
2022-12-11T02:10:30.874Z,84.68
2022-12-11T02:13:09.525Z,84.22
2022-12-11T02:16:03.653Z,83.72
2022-12-11T02:18:58.673Z,71.93
2022-12-11T02:21:35.430Z,76.57
2022-12-11T02:24:40.717Z,78.25
2022-12-11T02:27:29.430Z,78.88
2022-12-11T02:30:08.964Z,74.50
2022-12-11T02:33:01.314Z,78.70
2022-12-11T02:35:43.416Z,84.97
2022-12-11T02:38:30.451Z,82.20
2022-12-11T02:41:02.800Z,83.28
2022-12-11T02:43:35.443Z,83.07
2022-12-11T02:46:09.392Z,77.72
2022-12-11T02:48:41.245Z,82.68
2022-12-11T02:51:12.472Z,81.25
2022-12-11T02:53:45.936Z,79.45
2022-12-11T02:56:21.234Z,83.75
2022-12-11T02:58:58.792Z,80.20
2022-12-11T03:01:30.169Z,82.15
2022-12-11T03:04:01.205Z,80.40
2022-12-11T03:06:39.196Z,77.78
2022-12-11T03:09:10.449Z,78.30
2022-12-11T03:11:40.336Z,79.15
2022-12-11T03:14:12.165Z,79.93
2022-12-11T03:16:50.220Z,80.32
2022-12-11T03:19:38.539Z,82.57
2022-12-11T03:22:32.146Z,88.95
2022-12-11T03:25:09.761Z,86.80
2022-12-11T03:27:57.043Z,89.43
2022-12-11T03:30:29.193Z,87.40
2022-12-11T03:33:05.826Z,90.43
2022-12-11T03:35:44.650Z,89.57
2022-12-11T03:38:24.036Z,88.43
2022-12-11T03:40:59.126Z,88.20
2022-12-11T03:43:31.071Z,90.38
2022-12-11T03:46:03.077Z,91.75
2022-12-11T03:48:40.921Z,86.40
2022-12-11T03:51:11.922Z,95.50
2022-12-11T03:53:42.675Z,94.60
2022-12-11T03:56:15.344Z,96.32
2022-12-11T03:58:45.192Z,101.18
2022-12-11T04:01:15.071Z,105.47
2022-12-11T04:03:45.124Z,101.65
2022-12-11T04:06:15.027Z,104.20
2022-12-11T04:08:44.939Z,100.05
2022-12-11T04:11:26.737Z,96.88
2022-12-11T04:14:16.014Z,95.57
2022-12-11T04:16:46.069Z,96.53
2022-12-11T04:19:26.283Z,100.00
2022-12-11T04:22:07.067Z,97.00
2022-12-11T04:24:37.473Z,92.70
2022-12-11T04:27:07.405Z,96.70
2022-12-11T04:29:38.104Z,98.10
2022-12-11T04:32:09.031Z,100.78
2022-12-11T04:34:38.977Z,97.95
2022-12-11T04:37:08.959Z,99.25
2022-12-11T04:39:39.014Z,99.65
2022-12-11T04:42:08.844Z,96.85
2022-12-11T04:44:39.664Z,96.47
2022-12-11T04:47:10.595Z,95.72
2022-12-11T04:49:40.759Z,95.60
2022-12-11T04:52:10.631Z,99.72
2022-12-11T04:54:40.524Z,93.30
2022-12-11T04:57:10.477Z,93.28
2022-12-11T04:59:40.524Z,93.60
2022-12-11T05:02:10.526Z,88.65
2022-12-11T05:04:40.453Z,84.70
2022-12-11T05:07:11.098Z,82.13
2022-12-11T05:09:41.312Z,85.38
2022-12-11T05:12:11.222Z,84.10
2022-12-11T05:14:41.266Z,77.50
2022-12-11T05:17:11.246Z,76.72
2022-12-11T05:19:41.171Z,74.22
2022-12-11T05:22:10.940Z,75.22
2022-12-11T05:24:41.263Z,75.22
2022-12-11T05:27:11.845Z,68.97
2022-12-11T05:29:42.144Z,67.88
2022-12-11T05:32:12.075Z,65.40
2022-12-11T05:34:42.035Z,63.50
2022-12-11T05:37:12.304Z,67.63
2022-12-11T05:39:42.234Z,63.58
2022-12-11T05:42:12.213Z,70.22
2022-12-11T05:44:42.104Z,63.78
2022-12-11T05:47:12.860Z,63.25
2022-12-11T05:49:42.770Z,63.70
2022-12-11T05:52:12.695Z,39.75
2022-12-11T05:54:42.822Z,44.70
2022-12-11T05:57:12.695Z,30.27
2022-12-11T05:59:42.730Z,30.42
2022-12-11T06:02:12.745Z,27.05
2022-12-11T06:04:42.766Z,31.05
2022-12-11T06:07:13.224Z,41.58
2022-12-11T06:09:43.248Z,41.53
2022-12-11T06:12:13.295Z,46.72
2022-12-11T06:14:43.279Z,44.72
2022-12-11T06:17:13.324Z,43.97
2022-12-11T06:19:43.335Z,40.60
2022-12-11T06:22:13.358Z,37.53
2022-12-11T06:24:43.276Z,35.53
2022-12-11T06:27:13.205Z,37.03
2022-12-11T06:29:43.110Z,26.48
2022-12-11T06:32:13.065Z,28.95
2022-12-11T06:34:43.230Z,28.90
2022-12-11T06:37:13.464Z,33.13
2022-12-11T06:39:43.501Z,35.47
2022-12-11T06:42:13.474Z,36.45
2022-12-11T06:44:43.434Z,36.10
2022-12-11T06:47:13.396Z,35.63
2022-12-11T06:49:43.372Z,32.88
2022-12-11T06:52:18.259Z,32.33
2022-12-11T06:54:48.651Z,31.90
2022-12-11T06:57:19.845Z,36.10
2022-12-11T06:59:50.523Z,35.47
2022-12-11T07:02:22.607Z,34.92
2022-12-11T07:04:55.290Z,35.25
2022-12-11T07:07:25.409Z,32.85
2022-12-11T07:09:56.040Z,35.95
2022-12-11T07:12:26.009Z,39.90
2022-12-11T07:14:55.974Z,39.05
2022-12-11T07:17:25.799Z,38.28
2022-12-11T07:19:55.602Z,36.53
2022-12-11T07:22:25.939Z,36.08
2022-12-11T07:24:55.729Z,41.15
2022-12-11T07:27:25.906Z,39.17
2022-12-11T07:32:27.307Z,32.17
2022-12-11T07:34:57.271Z,20.45
2022-12-11T07:37:27.288Z,19.70
2022-12-11T07:39:57.565Z,17.70
2022-12-11T07:44:56.925Z,20.00
2022-12-11T07:47:26.861Z,19.95
2022-12-11T07:49:56.689Z,18.10
2022-12-11T07:52:26.616Z,16.08
2022-12-11T07:54:56.510Z,19.23
2022-12-11T07:57:26.309Z,18.95
2022-12-11T07:59:57.195Z,16.63
2022-12-11T08:02:29.241Z,18.75
2022-12-11T08:05:02.578Z,16.90
2022-12-11T08:07:32.571Z,15.25
2022-12-11T08:10:02.476Z,16.55
2022-12-11T08:12:32.406Z,15.80
2022-12-11T08:15:02.354Z,15.70
2022-12-11T08:17:35.292Z,16.75
2022-12-11T08:20:10.925Z,17.38
2022-12-11T08:22:40.910Z,16.90
2022-12-11T08:25:11.421Z,19.15
2022-12-11T08:27:41.556Z,20.63
2022-12-11T08:30:12.902Z,21.35
2022-12-11T08:32:43.160Z,20.15
2022-12-11T08:37:43.339Z,18.17
2022-12-11T08:40:14.001Z,17.00
2022-12-11T08:42:44.006Z,16.50
2022-12-11T08:45:14.074Z,16.92
2022-12-11T08:47:44.811Z,14.15
2022-12-11T08:50:14.883Z,14.70
2022-12-11T08:52:44.750Z,14.57
2022-12-11T08:55:14.716Z,14.15
2022-12-11T08:57:44.624Z,16.30
2022-12-11T09:00:16.908Z,15.85
2022-12-11T09:02:46.883Z,16.05
2022-12-11T09:05:16.831Z,16.13
2022-12-11T09:07:46.797Z,15.70
2022-12-11T09:10:16.884Z,15.55
2022-12-11T09:12:46.898Z,14.90
2022-12-11T09:15:16.784Z,14.70
2022-12-11T09:17:46.840Z,14.95
2022-12-11T09:20:17.091Z,14.60
2022-12-11T09:25:16.500Z,14.40
2022-12-11T09:27:46.355Z,15.13
2022-12-11T09:30:18.444Z,14.80
2022-12-11T09:32:48.373Z,16.15
2022-12-11T09:35:18.369Z,14.88
2022-12-11T09:37:48.254Z,14.82
2022-12-11T09:40:18.133Z,15.55
2022-12-11T09:43:11.811Z,15.25
2022-12-11T09:45:41.644Z,16.23
2022-12-11T09:48:13.523Z,16.55
2022-12-11T09:50:43.866Z,16.63
2022-12-11T09:53:28.690Z,15.80
2022-12-11T09:56:16.597Z,14.55
2022-12-11T09:59:07.442Z,13.98
2022-12-11T10:02:03.059Z,16.77
2022-12-11T10:04:52.327Z,16.10
2022-12-11T10:07:49.277Z,15.35
2022-12-11T10:10:40.301Z,15.82
2022-12-11T10:13:26.690Z,17.05
2022-12-11T10:16:05.652Z,17.60
2022-12-11T10:18:35.491Z,15.95
2022-12-11T10:21:06.070Z,15.63
2022-12-11T10:23:46.529Z,15.38
2022-12-11T10:26:21.245Z,15.52
2022-12-11T10:28:50.896Z,16.38
2022-12-11T10:31:33.748Z,15.52
2022-12-11T10:34:14.495Z,17.63
2022-12-11T10:36:44.739Z,16.63
2022-12-11T10:39:19.499Z,17.35
2022-12-11T10:41:54.231Z,16.08
2022-12-11T10:44:28.616Z,17.13
2022-12-11T10:47:16.436Z,17.00
2022-12-11T10:50:02.251Z,18.90
2022-12-11T10:52:39.102Z,14.65
2022-12-11T10:55:30.600Z,15.75
2022-12-11T10:58:04.583Z,15.88
2022-12-11T11:00:40.994Z,14.77
2022-12-11T11:03:23.949Z,15.23
2022-12-11T11:06:16.215Z,18.92
2022-12-11T11:08:49.365Z,19.75
2022-12-11T11:11:34.295Z,21.92
2022-12-11T11:14:17.897Z,23.65
2022-12-11T11:16:50.452Z,22.13
2022-12-11T11:19:33.310Z,23.67
2022-12-11T11:22:11.107Z,23.05
2022-12-11T11:24:47.345Z,23.90
2022-12-11T11:27:32.148Z,23.80
2022-12-11T11:30:07.852Z,23.77
2022-12-11T11:32:41.553Z,23.35
2022-12-11T11:35:23.217Z,24.50
2022-12-11T11:38:17.454Z,25.15
2022-12-11T11:41:23.262Z,25.50
2022-12-11T11:44:06.515Z,28.75
2022-12-11T11:46:43.349Z,27.50
2022-12-11T11:49:46.901Z,26.27
2022-12-11T11:52:41.167Z,25.90
2022-12-11T11:55:23.023Z,28.42
2022-12-11T11:58:24.578Z,26.35
2022-12-11T12:00:56.992Z,30.40
2022-12-11T12:03:28.376Z,36.05
2022-12-11T12:06:16.206Z,36.55
2022-12-11T12:09:00.908Z,36.55
2022-12-11T12:11:56.112Z,35.92
2022-12-11T12:14:52.037Z,33.97
2022-12-11T12:18:02.361Z,32.40
2022-12-11T12:20:52.028Z,34.80
2022-12-11T12:23:48.478Z,35.03
2022-12-11T12:26:33.356Z,31.30
2022-12-11T12:29:25.674Z,32.15
2022-12-11T12:32:11.918Z,41.47
2022-12-11T12:35:09.298Z,43.72
2022-12-11T12:38:09.104Z,47.05
2022-12-11T12:41:17.376Z,53.70
2022-12-11T12:44:05.253Z,52.92
2022-12-11T12:46:57.121Z,54.10
2022-12-11T12:49:43.799Z,54.97
2022-12-11T12:52:33.989Z,59.17
2022-12-11T12:55:17.845Z,67.43
2022-12-11T12:58:08.207Z,67.70
2022-12-11T13:00:42.836Z,68.32
2022-12-11T13:03:22.783Z,66.85
2022-12-11T13:06:06.204Z,68.78
2022-12-11T13:08:49.331Z,64.60
2022-12-11T13:11:21.777Z,63.85
2022-12-11T13:14:10.731Z,65.47
2022-12-11T13:16:44.542Z,60.75
2022-12-11T13:19:33.133Z,60.90
2022-12-11T13:22:25.707Z,56.88
2022-12-11T13:25:03.456Z,56.70
2022-12-11T13:27:47.068Z,61.88
2022-12-11T13:30:27.085Z,58.00
2022-12-11T13:33:16.777Z,56.40
2022-12-11T13:35:47.642Z,54.77
2022-12-11T13:38:23.284Z,56.83
2022-12-11T13:40:58.327Z,56.67
2022-12-11T13:43:31.804Z,56.08
2022-12-11T13:46:05.248Z,54.03
2022-12-11T13:48:49.593Z,58.38
2022-12-11T13:51:21.588Z,57.92
2022-12-11T13:53:51.821Z,61.45
2022-12-11T13:56:24.258Z,59.78
2022-12-11T13:58:54.118Z,65.18
2022-12-11T14:01:29.237Z,61.10
2022-12-11T14:04:17.024Z,61.97
2022-12-11T14:06:47.533Z,65.18
2022-12-11T14:09:23.766Z,57.42
2022-12-11T14:11:58.736Z,62.20
2022-12-11T14:14:45.657Z,68.20
2022-12-11T14:17:20.619Z,62.28
2022-12-11T14:19:51.077Z,66.22
2022-12-11T14:22:27.198Z,63.33
2022-12-11T14:25:02.131Z,63.35
2022-12-11T14:27:33.183Z,60.08
2022-12-11T14:30:13.788Z,59.97
2022-12-11T14:32:47.993Z,60.78
2022-12-11T14:35:35.509Z,59.22
2022-12-11T14:38:33.280Z,56.78
2022-12-11T14:41:13.046Z,59.08
2022-12-11T14:43:49.170Z,63.27
2022-12-11T14:46:26.265Z,62.80
2022-12-11T14:49:02.631Z,62.28
2022-12-11T14:51:37.410Z,61.38
2022-12-11T14:54:09.751Z,64.45
2022-12-11T14:56:40.148Z,67.70
2022-12-11T14:59:21.106Z,68.55
2022-12-11T15:02:02.626Z,68.38
2022-12-11T15:04:35.833Z,73.45
2022-12-11T15:07:05.826Z,72.60
2022-12-11T15:09:44.277Z,76.05
2022-12-11T15:12:20.959Z,73.15
2022-12-11T15:14:57.396Z,74.50
2022-12-11T15:17:29.701Z,71.60
2022-12-11T15:20:14.460Z,71.45
2022-12-11T15:22:46.613Z,67.55
2022-12-11T15:25:29.706Z,66.50
2022-12-11T15:28:02.986Z,60.70
2022-12-11T15:30:36.145Z,55.17
2022-12-11T15:33:23.743Z,50.95
2022-12-11T15:36:06.056Z,53.28
2022-12-11T15:38:45.639Z,53.28
2022-12-11T15:41:20.212Z,51.53
2022-12-11T15:43:56.754Z,47.38
2022-12-11T15:46:28.822Z,48.08
2022-12-11T15:48:59.366Z,44.47
2022-12-11T15:51:29.231Z,45.47
2022-12-11T15:53:59.158Z,42.58
2022-12-11T15:56:29.108Z,45.60
2022-12-11T15:59:04.879Z,43.25
2022-12-11T16:01:34.932Z,46.30
2022-12-11T16:04:05.501Z,46.00
2022-12-11T16:06:36.159Z,44.72
2022-12-11T16:09:06.754Z,44.38
2022-12-11T16:14:06.426Z,46.75
2022-12-11T16:16:36.823Z,46.42
2022-12-11T16:19:06.838Z,43.25
2022-12-11T16:21:36.672Z,43.70
2022-12-11T16:24:07.011Z,44.17
2022-12-11T16:26:37.600Z,40.65
2022-12-11T16:29:07.608Z,41.53
2022-12-11T16:31:37.454Z,41.92
2022-12-11T16:34:07.272Z,44.38
2022-12-11T16:36:37.168Z,44.10
2022-12-11T16:39:07.545Z,40.17
2022-12-11T16:41:38.177Z,41.15
2022-12-11T16:46:41.889Z,37.97
2022-12-11T16:49:11.826Z,46.20
2022-12-11T16:51:41.679Z,48.28
2022-12-11T16:54:13.231Z,49.15
2022-12-11T16:56:43.358Z,44.60
2022-12-11T16:59:14.591Z,44.13
2022-12-11T17:01:44.469Z,45.55
2022-12-11T17:04:14.441Z,43.85
2022-12-11T17:06:44.481Z,42.38
2022-12-11T17:09:14.475Z,46.83
2022-12-11T17:11:44.340Z,43.03
2022-12-11T17:14:14.350Z,47.05
2022-12-11T17:16:44.346Z,44.75
2022-12-11T17:19:15.153Z,44.17
2022-12-11T17:21:51.164Z,44.35
2022-12-11T17:24:22.077Z,45.35
2022-12-11T17:26:52.066Z,45.72
2022-12-11T17:29:22.889Z,43.17
2022-12-11T17:31:53.617Z,44.25
2022-12-11T17:36:53.477Z,43.58
2022-12-11T17:39:23.379Z,43.95
2022-12-11T17:41:53.283Z,45.03
2022-12-11T17:44:23.199Z,43.38
2022-12-11T17:46:53.139Z,47.90
2022-12-11T17:49:23.080Z,43.75
2022-12-11T17:51:54.920Z,41.97
2022-12-11T17:54:25.905Z,43.42
2022-12-11T17:56:55.852Z,45.78
2022-12-11T17:59:26.082Z,47.15
2022-12-11T18:01:56.023Z,47.03
2022-12-11T18:04:26.334Z,48.78
2022-12-11T18:06:56.316Z,47.15
2022-12-11T18:09:26.146Z,47.65
2022-12-11T18:11:56.570Z,48.00
2022-12-11T18:14:27.133Z,47.00
2022-12-11T18:16:57.165Z,49.13
2022-12-11T18:19:28.727Z,50.35
2022-12-11T18:21:59.240Z,48.63
2022-12-11T18:24:33.475Z,56.50
2022-12-11T18:27:04.406Z,56.22
2022-12-11T18:29:34.539Z,59.05
2022-12-11T18:32:04.515Z,58.17
2022-12-11T18:34:35.151Z,56.97
2022-12-11T18:37:05.069Z,57.40
2022-12-11T18:39:34.960Z,64.15
2022-12-11T18:42:31.593Z,67.45
2022-12-11T18:44:54.880Z,61.75
2022-12-11T18:47:25.302Z,53.63
2022-12-11T18:49:55.452Z,55.58
2022-12-11T18:52:25.417Z,49.83
2022-12-11T18:54:55.450Z,51.67
2022-12-11T18:57:25.438Z,49.53
2022-12-11T18:59:56.293Z,51.22
2022-12-11T19:02:26.311Z,50.78
2022-12-11T19:04:56.208Z,46.58
2022-12-11T19:07:26.068Z,47.67
2022-12-11T19:09:55.966Z,46.83
2022-12-11T19:12:25.890Z,45.85
2022-12-11T19:14:56.764Z,46.65
2022-12-11T19:17:26.556Z,45.47
2022-12-11T19:19:56.552Z,43.43
2022-12-11T19:22:26.591Z,44.42
2022-12-11T19:24:56.388Z,41.70
2022-12-11T19:27:26.155Z,39.88
2022-12-11T19:29:56.202Z,41.97
2022-12-11T19:32:26.209Z,38.20
2022-12-11T19:34:57.480Z,33.63
2022-12-11T19:37:27.542Z,26.88
2022-12-11T19:39:57.538Z,31.13
2022-12-11T19:42:28.873Z,31.10
2022-12-11T19:44:58.702Z,26.40
2022-12-11T19:47:29.001Z,29.37
2022-12-11T19:49:58.937Z,26.55
2022-12-11T19:52:29.181Z,25.95
2022-12-11T19:55:04.566Z,26.25
2022-12-11T19:57:35.723Z,25.73
2022-12-11T20:00:06.426Z,27.20
2022-12-11T20:05:05.856Z,24.88
2022-12-11T20:07:35.871Z,28.70
2022-12-11T20:10:05.864Z,27.50
2022-12-11T20:12:35.724Z,29.35
2022-12-11T20:15:08.384Z,31.60
2022-12-11T20:17:44.696Z,30.85
2022-12-11T20:20:14.994Z,32.80
2022-12-11T20:22:44.776Z,32.50
2022-12-11T20:25:14.786Z,32.73
2022-12-11T20:27:44.948Z,35.95
2022-12-11T20:30:15.700Z,33.25
2022-12-11T20:35:15.816Z,33.33
2022-12-11T20:37:45.636Z,33.75
2022-12-11T20:40:15.966Z,32.67
2022-12-11T20:42:46.005Z,32.42
2022-12-11T20:45:15.910Z,35.05
2022-12-11T20:47:46.335Z,29.80
2022-12-11T20:50:16.367Z,30.83
2022-12-11T20:52:46.236Z,28.58
2022-12-11T20:55:16.562Z,28.85
2022-12-11T20:57:46.384Z,27.52
2022-12-11T21:00:16.894Z,27.93
2022-12-11T21:02:46.727Z,28.42
2022-12-11T21:05:16.558Z,29.42
2022-12-11T21:07:46.762Z,29.27
2022-12-11T21:10:16.911Z,30.30
2022-12-11T21:12:46.791Z,30.80
2022-12-11T21:15:16.788Z,28.92
2022-12-11T21:17:47.203Z,29.75
2022-12-11T21:20:17.165Z,28.92
2022-12-11T21:22:47.039Z,33.17
2022-12-11T21:25:16.975Z,28.15
2022-12-11T21:27:46.985Z,31.60
2022-12-11T21:30:18.032Z,32.60
2022-12-11T21:32:48.701Z,29.85
2022-12-11T21:35:18.600Z,31.80
2022-12-11T21:37:49.048Z,31.58
2022-12-11T21:40:18.768Z,28.52
2022-12-11T21:42:48.649Z,32.15
2022-12-11T21:48:08.762Z,34.63
2022-12-11T21:50:38.793Z,32.60
2022-12-11T21:53:08.790Z,31.23
2022-12-11T21:55:43.110Z,28.98
2022-12-11T21:58:13.010Z,28.67
2022-12-11T22:00:42.883Z,29.48
2022-12-11T22:03:12.769Z,27.48
2022-12-11T22:05:42.620Z,26.00
2022-12-11T22:08:12.482Z,29.17
2022-12-11T22:10:42.713Z,28.40
2022-12-11T22:13:12.468Z,30.00
2022-12-11T22:15:42.361Z,28.23
2022-12-11T22:18:12.394Z,30.23
2022-12-11T22:20:42.217Z,29.80
2022-12-11T22:23:12.213Z,29.20
2022-12-11T22:25:42.369Z,29.30
2022-12-11T22:28:12.514Z,28.13
2022-12-11T22:30:42.421Z,30.25
2022-12-11T22:33:12.515Z,26.33
2022-12-11T22:35:42.323Z,28.30
2022-12-11T22:38:12.082Z,30.93
2022-12-11T22:40:43.713Z,30.53
2022-12-11T22:43:13.562Z,27.05
2022-12-11T22:45:43.784Z,28.27
2022-12-11T22:48:14.081Z,30.70
2022-12-11T22:50:44.859Z,30.45
2022-12-11T22:55:44.025Z,34.63
2022-12-11T22:58:18.576Z,35.47
2022-12-11T23:00:51.444Z,34.47
2022-12-11T23:03:21.302Z,34.42
2022-12-11T23:05:51.252Z,34.95
2022-12-11T23:08:21.305Z,35.05
2022-12-11T23:10:51.322Z,34.53
2022-12-11T23:13:21.133Z,34.07
2022-12-11T23:15:51.051Z,33.00
2022-12-11T23:18:20.861Z,37.80
2022-12-11T23:20:52.233Z,37.70
2022-12-11T23:23:22.032Z,41.83
2022-12-11T23:25:52.131Z,45.00
2022-12-11T23:28:22.210Z,44.85
2022-12-11T23:30:52.231Z,43.47
2022-12-11T23:33:22.114Z,44.33
2022-12-11T23:35:52.152Z,42.55
2022-12-11T23:38:22.013Z,42.47
2022-12-11T23:40:55.754Z,43.42
2022-12-11T23:43:25.722Z,40.60
2022-12-11T23:45:55.968Z,41.67
2022-12-11T23:48:25.873Z,42.30
2022-12-11T23:51:02.226Z,36.03
2022-12-11T23:53:32.099Z,35.90
2022-12-11T23:56:08.401Z,28.33
2022-12-11T23:58:39.951Z,33.13
